Dades meteomassalio
Diari Summary for Abril 19, 2017 Units:  English    Metric   Both
« Previous Day
Next Day »
Diari Semanal Mensual Anual Personalitzat
  Maxima: Minima: Mijana:
Temperatura: TemperatureC °F 9.7 °F 13.4 °F
Rosada: DewpointC °F 1.4 °F 5.3 °F
Humitat: Humidity % 41 % 58 %
Velocitat del vent: WindSpeedKMH mph 0.0 mph 10 mph
Racha vent: WindSpeedGustKMH mph - -
Vent:- - SSW
Pressio: PressurehPa in 1016.8 in -
Pluja: 0.0 in    
Historical Graphs
 
 
Tabular Data for Abril 19, 2017
Time Temperature Dew Point Pressure Wind Wind Speed Wind Gust Humidity Rainfall Rate (Hourly) solar Conditions
TemperatureC °F DewpointC °F PressurehPa in Calm     Humidity % HourlyPrecipMM in SolarRadiationWatts/m^2 W/m2 Conditions
00:01 15.8 °F 5.7 °F 1016.8 in West 22.2 mph 22.2 mph 51 % 0.0 in 0.0 W/m2 CLR
00:06 15.7 °F 5.6 °F 1016.8 in West 17.7 mph 17.7 mph 51 % 0.0 in 0.0 W/m2 CLR
00:11 15.7 °F 5.6 °F 1017.2 in West 14.8 mph 14.8 mph 51 % 0.0 in 0.0 W/m2 CLR
00:16 15.6 °F 5.8 °F 1017.2 in West 13.0 mph 13.0 mph 52 % 0.0 in 0.0 W/m2 CLR
00:21 15.5 °F 5.7 °F 1017.2 in WSW 13.0 mph 13.0 mph 52 % 0.0 in 0.0 W/m2 CLR
00:26 15.4 °F 5.6 °F 1017.5 in West 7.4 mph 7.4 mph 52 % 0.0 in 0.0 W/m2 CLR
00:31 15.2 °F 5.7 °F 1017.5 in WNW 13.0 mph 13.0 mph 53 % 0.0 in 0.0 W/m2 CLR
00:36 15.1 °F 5.6 °F 1017.5 in WNW 3.7 mph 3.7 mph 53 % 0.0 in 0.0 W/m2 CLR
00:41 14.9 °F 5.7 °F 1017.5 in Calm     54 % 0.0 in 0.0 W/m2 CLR
00:46 14.8 °F 5.6 °F 1017.5 in Calm     54 % 0.0 in 0.0 W/m2 CLR
00:51 14.7 °F 5.8 °F 1017.8 in WNW 5.6 mph 5.6 mph 55 % 0.0 in 0.0 W/m2 CLR
00:56 14.7 °F 5.7 °F 1017.8 in WNW 13.0 mph 13.0 mph 55 % 0.0 in 0.0 W/m2 CLR
01:01 14.6 °F 5.7 °F 1017.8 in WNW 5.6 mph 5.6 mph 55 % 0.0 in 0.0 W/m2 CLR
01:06 14.4 °F 5.8 °F 1017.8 in West 7.4 mph 7.4 mph 56 % 0.0 in 0.0 W/m2 CLR
01:11 14.4 °F 5.7 °F 1017.8 in Calm     56 % 0.0 in 0.0 W/m2 CLR
01:16 14.3 °F 5.6 °F 1017.8 in Calm     56 % 0.0 in 0.0 W/m2 CLR
01:21 14.2 °F 5.6 °F 1017.8 in Calm     56 % 0.0 in 0.0 W/m2 CLR
01:26 14.1 °F 5.7 °F 1018.2 in WNW 9.3 mph 9.3 mph 57 % 0.0 in 0.0 W/m2 CLR
01:31 14.1 °F 5.7 °F 1018.2 in West 3.7 mph 3.7 mph 57 % 0.0 in 0.0 W/m2 CLR
01:36 14.0 °F 5.6 °F 1018.2 in WNW 5.6 mph   57 % 0.0 in 0.0 W/m2 CLR
01:41 13.8 °F 5.7 °F 1018.2 in WNW 5.6 mph 5.6 mph 58 % 0.0 in 0.0 W/m2 CLR
01:46 13.6 °F 5.7 °F 1018.2 in WNW 9.3 mph 9.3 mph 59 % 0.0 in 0.0 W/m2 CLR
01:51 13.6 °F 5.7 °F 1018.2 in WNW 5.6 mph 5.6 mph 59 % 0.0 in 0.0 W/m2 CLR
01:56 13.4 °F 5.6 °F 1018.2 in West 5.6 mph 5.6 mph 59 % 0.0 in 0.0 W/m2 CLR
02:01 13.4 °F 5.6 °F 1018.2 in Calm     59 % 0.0 in 0.0 W/m2 CLR
02:06 13.2 °F 5.4 °F 1018.2 in Calm     59 % 0.0 in 0.0 W/m2 CLR
02:11 13.0 °F 5.4 °F 1018.2 in Calm     60 % 0.0 in 0.0 W/m2 CLR
02:16 12.6 °F 5.3 °F 1018.2 in Calm     61 % 0.0 in 0.0 W/m2 CLR
02:21 12.3 °F 5.2 °F 1018.2 in Calm     62 % 0.0 in 0.0 W/m2 CLR
02:26 12.1 °F 5.3 °F 1018.5 in Calm     63 % 0.0 in 0.0 W/m2 CLR
02:31 11.9 °F 5.1 °F 1018.5 in Calm     63 % 0.0 in 0.0 W/m2 CLR
02:36 11.9 °F 5.3 °F 1018.5 in Calm     64 % 0.0 in 0.0 W/m2 CLR
02:41 11.9 °F 5.5 °F 1018.5 in Calm     65 % 0.0 in 0.0 W/m2 CLR
02:46 12.2 °F 5.6 °F 1018.5 in West 1.9 mph   64 % 0.0 in 0.0 W/m2 CLR
02:51 12.3 °F 5.4 °F 1018.5 in WSW 1.9 mph   63 % 0.0 in 0.0 W/m2 CLR
02:56 12.1 °F 5.3 °F 1018.5 in SW 1.9 mph 1.9 mph 63 % 0.0 in 0.0 W/m2 CLR
02:57 12.1 °F 5.2 °F 1018.5 in SW 1.9 mph 1.9 mph 63 % 0.0 in 0.0 W/m2 CLR
03:02 11.6 °F 5.2 °F 1018.5 in WSW 3.7 mph 3.7 mph 65 % 0.0 in 0.0 W/m2 CLR
03:07 11.4 °F 5.3 °F 1018.8 in WSW 5.6 mph 5.6 mph 66 % 0.0 in 0.0 W/m2 CLR
03:12 11.4 °F 5.3 °F 1018.8 in West 6.4 mph 6.4 mph 66 % 0.0 in 0.0 W/m2 CLR
03:17 11.8 °F 5.2 °F 1018.5 in West 5.6 mph 5.6 mph 64 % 0.0 in 0.0 W/m2 CLR
03:22 11.8 °F 5.2 °F 1018.5 in WSW 3.7 mph 3.7 mph 64 % 0.0 in 0.0 W/m2 CLR
03:32 11.4 °F 5.1 °F 1018.8 in WSW 5.6 mph 5.6 mph 65 % 0.0 in 0.0 W/m2 CLR
03:37 11.3 °F 5.2 °F 1018.8 in WSW 5.6 mph 6.0 mph 66 % 0.0 in 0.0 W/m2 CLR
03:42 11.3 °F 4.9 °F 1018.8 in Calm     65 % 0.0 in 0.0 W/m2 CLR
03:47 11.1 °F 4.9 °F 1018.8 in SW 3.7 mph 3.7 mph 66 % 0.0 in 0.0 W/m2 CLR
03:52 10.8 °F 4.9 °F 1018.8 in Calm   1.3 mph 67 % 0.0 in 0.0 W/m2 CLR
03:57 10.4 °F 4.6 °F 1018.8 in SW 5.6 mph 5.6 mph 67 % 0.0 in 0.0 W/m2 CLR
04:02 10.1 °F 4.7 °F 1018.8 in Calm     69 % 0.0 in 0.0 W/m2 CLR
04:07 9.8 °F 4.6 °F 1018.8 in WSW 5.6 mph 5.6 mph 70 % 0.0 in 0.0 W/m2 CLR
04:12 10.2 °F 4.9 °F 1018.8 in West 9.3 mph 9.3 mph 70 % 0.0 in 0.0 W/m2 CLR
04:17 10.6 °F 4.9 °F 1018.8 in West 11.3 mph 11.3 mph 68 % 0.0 in 0.0 W/m2 CLR
04:22 11.1 °F 5.0 °F 1018.8 in West 13.0 mph 13.0 mph 66 % 0.0 in 0.0 W/m2 CLR
04:27 11.6 °F 5.0 °F 1018.8 in WNW 20.4 mph 20.4 mph 64 % 0.0 in 0.0 W/m2 CLR
04:32 11.8 °F 4.8 °F 1018.8 in WNW 18.5 mph 18.5 mph 62 % 0.0 in 0.0 W/m2 CLR
04:37 12.0 °F 4.4 °F 1018.8 in West 18.5 mph 18.5 mph 60 % 0.0 in 0.0 W/m2 CLR
04:42 12.1 °F 4.3 °F 1018.8 in WNW 18.5 mph 18.5 mph 59 % 0.0 in 0.0 W/m2 CLR
04:47 12.2 °F 4.4 °F 1019.2 in West 18.5 mph 18.5 mph 59 % 0.0 in 0.0 W/m2 CLR
04:52 12.2 °F 4.4 °F 1019.2 in West 12.9 mph 12.9 mph 59 % 0.0 in 0.0 W/m2 CLR
04:57 12.1 °F 4.3 °F 1019.2 in Calm     59 % 0.0 in 0.0 W/m2 CLR
05:02 11.3 °F 4.3 °F 1018.8 in Calm     62 % 0.0 in 0.0 W/m2 CLR
05:07 10.7 °F 4.1 °F 1018.8 in Calm     64 % 0.0 in 0.0 W/m2 CLR
05:12 10.2 °F 4.1 °F 1018.8 in Calm     66 % 0.0 in 0.0 W/m2 CLR
05:17 9.9 °F 4.3 °F 1018.8 in Calm     68 % 0.0 in 0.0 W/m2 CLR
05:22 9.8 °F 4.2 °F 1018.8 in Calm     68 % 0.0 in 0.0 W/m2 CLR
05:27 9.9 °F 4.3 °F 1018.8 in SSW 5.6 mph 5.6 mph 68 % 0.0 in 0.0 W/m2 CLR
05:32 10.2 °F 4.4 °F 1019.2 in SSW 7.4 mph 7.4 mph 67 % 0.0 in 0.0 W/m2 CLR
05:37 10.6 °F 4.4 °F 1018.8 in SW 5.6 mph   66 % 0.0 in 0.0 W/m2 CLR
05:47 10.5 °F 4.4 °F 1018.8 in SW 3.7 mph   66 % 0.0 in 0.0 W/m2 CLR
05:52 10.6 °F 4.4 °F 1019.2 in Calm     66 % 0.0 in 0.0 W/m2 CLR
05:57 10.6 °F 4.3 °F 1019.2 in Calm     65 % 0.0 in 0.0 W/m2 CLR
06:02 10.6 °F 4.3 °F 1018.8 in Calm     65 % 0.0 in 0.0 W/m2 CLR
06:07 10.5 °F 4.2 °F 1018.8 in Calm     65 % 0.0 in 0.0 W/m2 CLR
06:12 10.5 °F 4.2 °F 1018.8 in Calm     65 % 0.0 in 0.0 W/m2 CLR
06:17 10.4 °F 4.3 °F 1018.8 in Calm     66 % 0.0 in 0.0 W/m2 CLR
06:22 10.3 °F 4.3 °F 1018.8 in Calm     66 % 0.0 in 0.0 W/m2 CLR
06:27 10.2 °F 4.2 °F 1019.2 in Calm     66 % 0.0 in 0.0 W/m2 CLR
06:32 10.1 °F 4.1 °F 1019.2 in Calm     66 % 0.0 in 0.0 W/m2 CLR
06:37 10.2 °F 4.4 °F 1019.2 in Calm     67 % 0.0 in 0.0 W/m2 CLR
06:42 9.9 °F 4.3 °F 1019.2 in Calm     68 % 0.0 in 0.0 W/m2 CLR
06:47 9.7 °F 4.3 °F 1019.2 in Calm     69 % 0.0 in 0.0 W/m2 CLR
06:52 9.9 °F 4.3 °F 1019.5 in Calm     68 % 0.0 in 0.0 W/m2 CLR
06:57 10.1 °F 4.4 °F 1019.5 in Calm     68 % 0.0 in 0.0 W/m2 CLR
07:02 10.2 °F 3.9 °F 1019.5 in Calm     65 % 0.0 in 0.0 W/m2 CLR
07:07 10.4 °F 4.2 °F 1019.5 in Calm     65 % 0.0 in 0.0 W/m2 OVC
07:12 10.5 °F 4.2 °F 1019.5 in Calm     65 % 0.0 in 0.0 W/m2 OVC
07:17 10.7 °F 4.1 °F 1019.5 in Calm     64 % 0.0 in 5.0 W/m2 OVC
07:23 10.7 °F 3.9 °F 1019.9 in Calm     63 % 0.0 in 5.0 W/m2 OVC
07:28 10.8 °F 3.8 °F 1019.9 in SW 5.6 mph 5.6 mph 62 % 0.0 in 7.0 W/m2 BKN
07:33 10.9 °F 3.9 °F 1019.9 in SW 3.7 mph 3.7 mph 62 % 0.0 in 11.0 W/m2 BKN
07:38 11.1 °F 4.1 °F 1019.9 in Calm     62 % 0.0 in 18.0 W/m2 BKN
07:43 11.1 °F 3.6 °F 1019.9 in WSW 7.4 mph 7.4 mph 60 % 0.0 in 19.0 W/m2 BKN
07:48 11.2 °F 3.7 °F 1019.9 in Calm     60 % 0.0 in 21.0 W/m2 BKN
07:53 11.3 °F 3.6 °F 1019.9 in Calm     59 % 0.0 in 26.0 W/m2 BKN
07:58 11.3 °F 3.6 °F 1020.2 in Calm     59 % 0.0 in 26.0 W/m2 BKN
08:03 11.3 °F 3.6 °F 1020.2 in West 4.8 mph 4.8 mph 59 % 0.0 in 33.0 W/m2 BKN
08:08 11.3 °F 3.3 °F 1020.2 in WSW 5.6 mph 5.6 mph 58 % 0.0 in 39.0 W/m2 BKN
08:13 11.3 °F 3.3 °F 1020.2 in Calm     58 % 0.0 in 35.0 W/m2 BKN
08:18 11.3 °F 3.3 °F 1020.2 in Calm     58 % 0.0 in 33.0 W/m2 BKN
08:23 11.3 °F 3.1 °F 1020.2 in SW 7.4 mph 7.4 mph 57 % 0.0 in 44.0 W/m2 BKN
08:28 11.2 °F 3.0 °F 1020.5 in Calm     57 % 0.0 in 47.0 W/m2 BKN
08:33 11.3 °F 3.1 °F 1020.5 in Calm     57 % 0.0 in 44.0 W/m2 SCT
08:43 11.2 °F 3.0 °F 1020.2 in Calm     57 % 0.0 in 69.0 W/m2 SCT
08:48 11.2 °F 3.0 °F 1020.2 in Calm     57 % 0.0 in 70.0 W/m2 SCT
08:53 11.2 °F 2.9 °F 1020.5 in Calm     57 % 0.0 in 88.0 W/m2 FEW
08:58 11.2 °F 2.9 °F 1020.5 in WSW 3.7 mph 3.7 mph 57 % 0.0 in 97.0 W/m2 FEW
09:03 11.2 °F 2.9 °F 1020.5 in WSW 3.7 mph 3.7 mph 57 % 0.0 in 130.0 W/m2 CLR
09:08 11.3 °F 3.1 °F 1020.5 in SW 5.6 mph 5.6 mph 57 % 0.0 in 135.0 W/m2 CLR
09:13 11.4 °F 2.7 °F 1020.5 in SW 6.4 mph 6.4 mph 55 % 0.0 in 206.0 W/m2 CLR
09:18 11.7 °F 2.9 °F 1020.2 in SW 7.4 mph 7.4 mph 55 % 0.0 in 163.0 W/m2 CLR
09:23 11.8 °F 2.6 °F 1020.5 in WSW 11.1 mph 11.1 mph 53 % 0.0 in 98.0 W/m2 CLR
09:28 11.8 °F 2.6 °F 1020.5 in West 5.6 mph 5.6 mph 53 % 0.0 in 134.0 W/m2 CLR
09:33 12.1 °F 2.5 °F 1020.5 in SW 11.1 mph 11.1 mph 52 % 0.0 in 227.0 W/m2 CLR
09:38 12.3 °F 2.2 °F 1020.5 in WNW 14.8 mph 14.8 mph 50 % 0.0 in 221.0 W/m2 CLR
09:43 12.4 °F 1.9 °F 1020.5 in West 14.8 mph 14.8 mph 49 % 0.0 in 299.0 W/m2 CLR
09:48 12.6 °F 2.1 °F 1020.5 in WSW 14.8 mph 14.8 mph 49 % 0.0 in 269.0 W/m2 CLR
09:53 12.6 °F 1.9 °F 1020.5 in West 14.8 mph 14.8 mph 48 % 0.0 in 236.0 W/m2 CLR
09:58 12.7 °F 2.3 °F 1020.5 in WSW 7.4 mph 7.4 mph 49 % 0.0 in 239.0 W/m2 CLR
10:03 12.9 °F 2.1 °F 1020.5 in WNW 9.7 mph 9.7 mph 48 % 0.0 in 299.0 W/m2 CLR
10:09 13.0 °F 1.9 °F 1020.5 in WNW 14.8 mph 14.8 mph 47 % 0.0 in 438.0 W/m2 CLR
10:14 13.2 °F 2.2 °F 1020.5 in West 18.5 mph 18.5 mph 47 % 0.0 in 513.0 W/m2 CLR
10:19 13.1 °F 1.7 °F 1020.5 in WNW 13.0 mph 13.0 mph 46 % 0.0 in 295.0 W/m2 CLR
10:24 13.1 °F 1.4 °F 1020.5 in WSW 7.4 mph 7.4 mph 45 % 0.0 in 318.0 W/m2 CLR
10:29 13.2 °F 1.8 °F 1020.5 in WSW 14.5 mph 14.5 mph 46 % 0.0 in 325.0 W/m2 CLR
10:34 13.3 °F 1.6 °F 1020.5 in SSW 12.9 mph 12.9 mph 45 % 0.0 in 422.0 W/m2 CLR
10:39 13.4 °F 1.4 °F 1020.5 in WSW 18.5 mph 18.5 mph 44 % 0.0 in 360.0 W/m2 CLR
10:44 13.6 °F 1.5 °F 1020.2 in SW 14.8 mph 14.8 mph 44 % 0.0 in 387.0 W/m2 CLR
10:49 13.9 °F 2.2 °F 1020.2 in SW 16.7 mph 16.7 mph 45 % 0.0 in 512.0 W/m2 CLR
10:52 14.1 °F 2.0 °F 1020.2 in SW 18.5 mph 18.5 mph 44 % 0.0 in 454.0 W/m2 CLR
10:57 14.2 °F 2.1 °F 1020.5 in WSW 5.6 mph 5.6 mph 44 % 0.0 in 482.0 W/m2 CLR
11:02 14.2 °F 1.5 °F 1020.5 in SW 18.5 mph 18.5 mph 42 % 0.0 in 489.0 W/m2 CLR
11:07 14.4 °F 2.3 °F 1020.2 in West 8.0 mph 8.0 mph 44 % 0.0 in 483.0 W/m2 CLR
11:12 14.7 °F 2.2 °F 1020.2 in West 11.3 mph 11.3 mph 43 % 0.0 in 448.0 W/m2 CLR
11:17 14.6 °F 2.2 °F 1020.5 in West 14.8 mph 14.8 mph 43 % 0.0 in 399.0 W/m2 CLR
11:22 14.6 °F 2.2 °F 1020.5 in SW 13.0 mph 13.0 mph 43 % 0.0 in 410.0 W/m2 CLR
11:27 14.7 °F 2.2 °F 1020.5 in West 9.3 mph 9.3 mph 43 % 0.0 in 457.0 W/m2 CLR
11:32 14.7 °F 1.9 °F 1020.5 in WSW 11.1 mph 11.1 mph 42 % 0.0 in 425.0 W/m2 CLR
11:37 14.7 °F 1.9 °F 1020.5 in SSW 6.4 mph 6.4 mph 42 % 0.0 in 406.0 W/m2 CLR
11:42 14.7 °F 1.6 °F 1020.5 in SSW 3.7 mph 4.2 mph 41 % 0.0 in 476.0 W/m2 CLR
11:47 14.7 °F 1.9 °F 1020.5 in WSW 16.7 mph 16.7 mph 42 % 0.0 in 457.0 W/m2 CLR
11:52 14.8 °F 2.1 °F 1020.5 in SW 7.4 mph 7.4 mph 42 % 0.0 in 429.0 W/m2 CLR
11:57 15.0 °F 2.2 °F 1020.5 in WSW 5.6 mph 9.0 mph 42 % 0.0 in 420.0 W/m2 CLR
12:02 15.2 °F 2.0 °F 1020.2 in SW 16.7 mph 16.7 mph 41 % 0.0 in 464.0 W/m2 CLR
12:07 15.3 °F 2.4 °F 1020.2 in WSW 13.0 mph 13.0 mph 42 % 0.0 in 526.0 W/m2 CLR
12:12 15.4 °F 2.9 °F 1020.2 in SW 9.7 mph 10.0 mph 43 % 0.0 in 503.0 W/m2 CLR
12:17 15.6 °F 2.3 °F 1020.2 in WSW 11.3 mph 11.3 mph 41 % 0.0 in 478.0 W/m2 CLR
12:22 15.6 °F 3.0 °F 1020.2 in WSW 14.8 mph 14.8 mph 43 % 0.0 in 519.0 W/m2 CLR
12:27 15.6 °F 3.1 °F 1020.2 in South 9.7 mph 9.7 mph 43 % 0.0 in 420.0 W/m2 CLR
12:32 15.7 °F 3.2 °F 1020.2 in Calm     43 % 0.0 in 492.0 W/m2 CLR
12:37 16.0 °F 3.7 °F 1020.2 in SSW 7.4 mph 7.4 mph 44 % 0.0 in 598.0 W/m2 CLR
12:42 16.1 °F 4.1 °F 1020.2 in SSW 9.3 mph 9.3 mph 45 % 0.0 in 874.0 W/m2 CLR
12:47 15.8 °F 5.4 °F 1020.2 in South 18.5 mph 18.5 mph 50 % 0.0 in 615.0 W/m2 CLR
12:52 15.4 °F 5.3 °F 1020.2 in South 13.0 mph 13.0 mph 51 % 0.0 in 489.0 W/m2 CLR
12:57 15.3 °F 4.7 °F 1020.2 in WSW 13.0 mph 13.0 mph 49 % 0.0 in 454.0 W/m2 CLR
13:02 15.6 °F 5.7 °F 1020.2 in SSW 8.0 mph 8.0 mph 52 % 0.0 in 522.0 W/m2 CLR
13:07 15.6 °F 6.1 °F 1020.2 in SSE 14.8 mph 14.8 mph 53 % 0.0 in 526.0 W/m2 CLR
13:12 15.5 °F 6.2 °F 1019.9 in South 12.9 mph 12.9 mph 54 % 0.0 in 489.0 W/m2 CLR
13:17 15.6 °F 6.1 °F 1019.9 in SW 14.8 mph 14.8 mph 53 % 0.0 in 461.0 W/m2 CLR
13:22 15.6 °F 6.6 °F 1019.9 in SSW 14.8 mph 14.8 mph 55 % 0.0 in 357.0 W/m2 CLR
13:27 15.4 °F 6.7 °F 1019.9 in SSE 18.5 mph 18.5 mph 56 % 0.0 in 325.0 W/m2 CLR
13:32 15.3 °F 6.8 °F 1019.9 in SSW 12.9 mph 12.9 mph 57 % 0.0 in 313.0 W/m2 CLR
13:37 15.3 °F 6.8 °F 1019.9 in SW 11.1 mph 11.1 mph 57 % 0.0 in 294.0 W/m2 CLR
13:42 15.2 °F 6.7 °F 1019.9 in SSE 16.7 mph 16.7 mph 57 % 0.0 in 276.0 W/m2 CLR
13:47 15.2 °F 6.7 °F 1019.9 in South 14.8 mph 14.8 mph 57 % 0.0 in 352.0 W/m2 CLR
13:52 15.1 °F 7.2 °F 1019.9 in SSE 9.3 mph 9.3 mph 59 % 0.0 in 436.0 W/m2 CLR
13:57 15.0 °F 7.8 °F 1019.5 in South 20.4 mph 20.4 mph 62 % 0.0 in 399.0 W/m2 CLR
14:02 14.9 °F 7.9 °F 1019.5 in SSE 7.4 mph 7.4 mph 63 % 0.0 in 309.0 W/m2 CLR
14:07 15.2 °F 7.5 °F 1019.5 in South 16.7 mph 16.7 mph 60 % 0.0 in 490.0 W/m2 CLR
14:12 15.4 °F 7.4 °F 1019.5 in South 14.8 mph 14.8 mph 59 % 0.0 in 490.0 W/m2 CLR
14:17 15.6 °F 7.9 °F 1019.5 in SW 11.1 mph 11.1 mph 60 % 0.0 in 960.0 W/m2 CLR
14:22 16.1 °F 8.1 °F 1019.5 in SSE 12.9 mph 12.9 mph 59 % 0.0 in 979.0 W/m2 CLR
14:27 16.2 °F 7.9 °F 1019.5 in SSW 22.5 mph 22.5 mph 58 % 0.0 in 925.0 W/m2 CLR
14:32 16.3 °F 7.8 °F 1019.5 in SW 9.3 mph 9.3 mph 57 % 0.0 in 919.0 W/m2 CLR
14:37 16.6 °F 8.0 °F 1019.5 in SSW 11.1 mph 11.1 mph 57 % 0.0 in 893.0 W/m2 CLR
14:38 16.6 °F 8.0 °F 1019.2 in South 13.0 mph 13.0 mph 57 % 0.0 in 895.0 W/m2 CLR
14:43 16.6 °F 7.7 °F 1019.2 in South 18.5 mph 18.5 mph 56 % 0.0 in 271.0 W/m2 CLR
14:48 16.4 °F 7.9 °F 1019.2 in SSE 22.2 mph 22.2 mph 57 % 0.0 in 986.0 W/m2 CLR
14:53 16.3 °F 8.2 °F 1019.2 in SSW 18.5 mph 18.5 mph 59 % 0.0 in 1007.0 W/m2 CLR
14:58 16.3 °F 8.0 °F 1018.8 in SSW 24.1 mph 24.1 mph 58 % 0.0 in 916.0 W/m2 CLR
15:03 16.2 °F 8.2 °F 1018.8 in South 24.1 mph 24.1 mph 59 % 0.0 in 972.0 W/m2 CLR
15:08 16.1 °F 8.1 °F 1019.2 in SSW 22.2 mph 22.2 mph 59 % 0.0 in 889.0 W/m2 CLR
15:14 16.4 °F 8.4 °F 1018.8 in SSW 18.5 mph 18.5 mph 59 % 0.0 in 856.0 W/m2 CLR
15:19 16.9 °F 8.3 °F 1018.8 in South 13.0 mph 13.0 mph 57 % 0.0 in 840.0 W/m2 CLR
15:24 16.9 °F 8.1 °F 1018.8 in South 18.5 mph 18.5 mph 56 % 0.0 in 837.0 W/m2 CLR
15:29 17.1 °F 8.3 °F 1018.8 in South 18.5 mph 18.5 mph 56 % 0.0 in 851.0 W/m2 CLR
15:34 16.9 °F 8.3 °F 1018.8 in South 20.9 mph 20.9 mph 57 % 0.0 in 826.0 W/m2 CLR
15:39 16.8 °F 8.0 °F 1018.8 in SSE 18.5 mph 18.5 mph 56 % 0.0 in 893.0 W/m2 CLR
15:44 16.9 °F 8.1 °F 1018.8 in SSW 20.4 mph 20.4 mph 56 % 0.0 in 680.0 W/m2 CLR
15:49 17.0 °F 8.2 °F 1018.5 in SSW 13.0 mph 13.0 mph 56 % 0.0 in 366.0 W/m2 CLR
15:54 17.2 °F 8.1 °F 1018.5 in SSE 14.8 mph 14.8 mph 55 % 0.0 in 819.0 W/m2 CLR
15:59 17.4 °F 8.3 °F 1018.5 in South 14.8 mph 14.8 mph 55 % 0.0 in 870.0 W/m2 CLR
16:04 17.6 °F 8.1 °F 1018.5 in SSE 18.5 mph 18.5 mph 54 % 0.0 in 868.0 W/m2 CLR
16:09 17.4 °F 8.3 °F 1018.5 in SSW 18.5 mph 18.5 mph 55 % 0.0 in 172.0 W/m2 CLR
16:14 17.3 °F 7.9 °F 1018.5 in SE 18.5 mph 18.5 mph 54 % 0.0 in 257.0 W/m2 CLR
16:19 17.4 °F 8.3 °F 1018.5 in South 20.4 mph 20.4 mph 55 % 0.0 in 844.0 W/m2 CLR
16:24 17.5 °F 8.3 °F 1018.2 in South 18.5 mph 18.5 mph 55 % 0.0 in 814.0 W/m2 CLR
16:29 17.8 °F 8.1 °F 1018.2 in South 18.5 mph 18.5 mph 53 % 0.0 in 752.0 W/m2 CLR
16:34 17.5 °F 8.1 °F 1018.2 in SSW 20.4 mph 20.4 mph 54 % 0.0 in 185.0 W/m2 CLR
16:39 17.1 °F 8.0 °F 1018.2 in SSE 16.7 mph 16.7 mph 55 % 0.0 in 225.0 W/m2 CLR
16:44 17.3 °F 7.9 °F 1018.2 in SE 18.5 mph 18.5 mph 54 % 0.0 in 740.0 W/m2 CLR
16:49 17.1 °F 7.7 °F 1018.2 in South 16.7 mph 16.7 mph 54 % 0.0 in 221.0 W/m2 CLR
16:54 17.4 °F 8.0 °F 1018.2 in SSE 18.5 mph 18.5 mph 54 % 0.0 in 740.0 W/m2 CLR
16:59 17.4 °F 7.7 °F 1018.2 in South 20.4 mph 20.4 mph 53 % 0.0 in 163.0 W/m2 CLR
17:04 17.3 °F 7.9 °F 1018.2 in SSE 18.5 mph 18.5 mph 54 % 0.0 in 696.0 W/m2 CLR
17:09 17.4 °F 8.1 °F 1018.2 in SSW 13.0 mph 13.0 mph 54 % 0.0 in 708.0 W/m2 CLR
17:14 17.7 °F 8.0 °F 1017.8 in ESE 16.1 mph 16.1 mph 53 % 0.0 in 722.0 W/m2 CLR
17:19 17.6 °F 7.9 °F 1017.8 in SSW 27.8 mph 27.8 mph 53 % 0.0 in 714.0 W/m2 CLR
17:24 17.5 °F 8.1 °F 1018.2 in South 14.8 mph 14.8 mph 54 % 0.0 in 615.0 W/m2 CLR
17:29 17.5 °F 7.8 °F 1018.2 in SE 25.9 mph 25.9 mph 53 % 0.0 in 686.0 W/m2 CLR
17:34 17.5 °F 8.1 °F 1018.2 in SSE 24.1 mph 24.1 mph 54 % 0.0 in 603.0 W/m2 CLR
17:39 17.5 °F 8.1 °F 1017.8 in SSE 16.7 mph 16.7 mph 54 % 0.0 in 564.0 W/m2 CLR
17:44 17.3 °F 7.9 °F 1017.8 in South 24.1 mph 24.1 mph 54 % 0.0 in 534.0 W/m2 CLR
17:49 17.3 °F 7.9 °F 1018.2 in SSW 31.5 mph 31.5 mph 54 % 0.0 in 522.0 W/m2 CLR
17:54 17.0 °F 7.6 °F 1018.2 in South 18.5 mph 18.5 mph 54 % 0.0 in 508.0 W/m2 CLR
17:59 16.7 °F 7.6 °F 1018.2 in SE 25.9 mph 25.9 mph 55 % 0.0 in 462.0 W/m2 CLR
18:04 16.5 °F 7.7 °F 1018.2 in SSW 25.7 mph 25.7 mph 56 % 0.0 in 341.0 W/m2 CLR
18:14 15.9 °F 7.6 °F 1018.5 in SSW 16.7 mph 16.7 mph 58 % 0.0 in 255.0 W/m2 CLR
18:19 16.0 °F 7.5 °F 1018.5 in SSE 16.7 mph 16.7 mph 57 % 0.0 in 283.0 W/m2 CLR
18:24 15.7 °F 7.2 °F 1018.5 in SE 20.4 mph 20.4 mph 57 % 0.0 in 392.0 W/m2 CLR
18:29 15.4 °F 7.2 °F 1018.5 in South 18.5 mph 18.5 mph 58 % 0.0 in 251.0 W/m2 CLR
18:34 15.3 °F 7.1 °F 1018.5 in SSE 20.9 mph 20.9 mph 58 % 0.0 in 185.0 W/m2 CLR
18:39 15.2 °F 6.9 °F 1018.8 in SSE 18.5 mph 18.5 mph 58 % 0.0 in 230.0 W/m2 CLR
18:44 15.1 °F 7.1 °F 1018.8 in SSE 18.5 mph 18.5 mph 59 % 0.0 in 188.0 W/m2 CLR
18:54 14.7 °F 6.7 °F 1018.8 in South 22.2 mph 22.2 mph 59 % 0.0 in 142.0 W/m2 CLR
18:59 14.6 °F 6.9 °F 1018.8 in South 24.1 mph 24.1 mph 60 % 0.0 in 128.0 W/m2 CLR
19:04 14.4 °F 6.7 °F 1019.2 in South 22.2 mph 22.2 mph 60 % 0.0 in 125.0 W/m2 CLR
19:09 14.3 °F 6.6 °F 1019.2 in SSE 25.9 mph 25.9 mph 60 % 0.0 in 195.0 W/m2 CLR
19:14 14.3 °F 6.6 °F 1019.2 in ESE 20.4 mph 20.4 mph 60 % 0.0 in 176.0 W/m2 CLR
19:19 14.3 °F 6.6 °F 1019.2 in ESE 14.8 mph 14.8 mph 60 % 0.0 in 102.0 W/m2 CLR
19:24 14.1 °F 6.7 °F 1019.2 in SE 20.4 mph 20.4 mph 61 % 0.0 in 84.0 W/m2 CLR
19:29 14.1 °F 6.7 °F 1019.2 in South 13.0 mph 13.0 mph 61 % 0.0 in 74.0 W/m2 CLR
19:34 13.9 °F 6.6 °F 1019.2 in SSE 22.2 mph 22.2 mph 61 % 0.0 in 74.0 W/m2 FEW
19:44 13.7 °F 6.3 °F 1019.5 in South 16.7 mph 16.7 mph 61 % 0.0 in 141.0 W/m2 CLR
19:49 13.6 °F 6.4 °F 1019.5 in South 22.2 mph 22.2 mph 62 % 0.0 in 132.0 W/m2 CLR
19:54 13.6 °F 6.4 °F 1019.5 in South 20.4 mph 20.4 mph 62 % 0.0 in 105.0 W/m2 CLR
19:59 13.6 °F 6.4 °F 1019.5 in South 24.1 mph 24.1 mph 62 % 0.0 in 90.0 W/m2 CLR
20:04 13.5 °F 6.3 °F 1019.5 in South 13.0 mph 13.0 mph 62 % 0.0 in 77.0 W/m2 FEW
20:09 13.4 °F 6.3 °F 1019.9 in SSE 24.1 mph 24.1 mph 62 % 0.0 in 63.0 W/m2 SCT
20:14 13.3 °F 6.4 °F 1019.5 in South 27.4 mph 27.4 mph 63 % 0.0 in 49.0 W/m2 SCT
20:19 13.2 °F 6.3 °F 1019.9 in SSE 20.4 mph 20.4 mph 63 % 0.0 in 35.0 W/m2 BKN
20:24 13.1 °F 6.2 °F 1019.9 in South 22.2 mph 22.2 mph 63 % 0.0 in 23.0 W/m2 BKN
20:29 13.0 °F 6.1 °F 1019.9 in South 16.7 mph 16.7 mph 63 % 0.0 in 16.0 W/m2 BKN
20:34 12.9 °F 6.2 °F 1019.9 in South 18.5 mph 18.5 mph 64 % 0.0 in 12.0 W/m2 BKN
20:39 12.8 °F 6.1 °F 1019.9 in SE 11.1 mph 11.1 mph 64 % 0.0 in 7.0 W/m2 BKN
20:44 12.7 °F 6.1 °F 1019.9 in South 13.0 mph 13.0 mph 64 % 0.0 in 0.0 W/m2 OVC
20:49 12.6 °F 6.2 °F 1020.2 in SSE 19.3 mph 19.3 mph 65 % 0.0 in 0.0 W/m2 OVC
20:54 12.5 °F 6.1 °F 1020.2 in South 9.7 mph 9.7 mph 65 % 0.0 in 0.0 W/m2 CLR
20:59 12.3 °F 6.2 °F 1020.2 in South 11.3 mph 11.3 mph 66 % 0.0 in 0.0 W/m2 CLR
21:04 12.2 °F 6.1 °F 1020.2 in South 7.4 mph 7.4 mph 66 % 0.0 in 0.0 W/m2 CLR
21:09 12.2 °F 6.0 °F 1020.5 in SSE 11.3 mph 11.3 mph 66 % 0.0 in 0.0 W/m2 CLR
21:14 12.1 °F 6.1 °F 1020.5 in SSW 13.0 mph 13.0 mph 67 % 0.0 in 0.0 W/m2 CLR
21:19 11.9 °F 6.0 °F 1020.5 in South 14.8 mph 14.8 mph 67 % 0.0 in 0.0 W/m2 CLR
21:24 11.8 °F 6.1 °F 1020.9 in Calm     68 % 0.0 in 0.0 W/m2 CLR
21:29 11.8 °F 6.1 °F 1020.9 in SE 5.6 mph 5.6 mph 68 % 0.0 in 0.0 W/m2 CLR
21:34 11.7 °F 6.0 °F 1020.9 in South 1.9 mph 1.9 mph 68 % 0.0 in 0.0 W/m2 CLR
21:39 11.7 °F 6.0 °F 1020.9 in SSE 7.4 mph 7.4 mph 68 % 0.0 in 0.0 W/m2 CLR
21:44 11.6 °F 5.9 °F 1020.9 in South 1.9 mph 1.9 mph 68 % 0.0 in 0.0 W/m2 CLR
21:49 11.5 °F 5.8 °F 1020.9 in South 5.6 mph 5.6 mph 68 % 0.0 in 0.0 W/m2 CLR
21:54 11.4 °F 5.9 °F 1021.2 in Calm     69 % 0.0 in 0.0 W/m2 CLR
21:59 11.3 °F 5.8 °F 1021.2 in SSW 9.3 mph 9.3 mph 69 % 0.0 in 0.0 W/m2 CLR
22:09 11.2 °F 5.9 °F 1021.2 in South 13.0 mph 13.0 mph 70 % 0.0 in 0.0 W/m2 CLR
22:14 11.2 °F 5.9 °F 1021.2 in SSE 3.2 mph 3.2 mph 70 % 0.0 in 0.0 W/m2 CLR
22:19 11.1 °F 5.8 °F 1021.6 in South 5.6 mph 5.6 mph 70 % 0.0 in 0.0 W/m2 CLR
22:24 11.1 °F 5.8 °F 1021.6 in SSE 5.6 mph 5.6 mph 70 % 0.0 in 0.0 W/m2 CLR
22:29 11.0 °F 5.7 °F 1021.6 in SSE 4.8 mph 4.8 mph 70 % 0.0 in 0.0 W/m2 CLR
22:34 11.0 °F 5.9 °F 1021.6 in SSE 7.4 mph 7.4 mph 71 % 0.0 in 0.0 W/m2 CLR
22:39 10.9 °F 5.9 °F 1021.6 in South 7.4 mph 7.4 mph 71 % 0.0 in 0.0 W/m2 CLR
22:44 10.9 °F 5.8 °F 1021.6 in South 5.6 mph 5.6 mph 71 % 0.0 in 0.0 W/m2 CLR
22:50 10.9 °F 5.8 °F 1021.6 in Calm     71 % 0.0 in 0.0 W/m2 CLR
22:55 10.8 °F 5.8 °F 1021.9 in Calm     71 % 0.0 in 0.0 W/m2 CLR
23:00 10.8 °F 5.8 °F 1021.9 in SSE 5.6 mph 5.6 mph 71 % 0.0 in 0.0 W/m2 CLR
23:05 10.8 °F 5.7 °F 1021.9 in Calm     71 % 0.0 in 0.0 W/m2 CLR
23:10 10.8 °F 5.7 °F 1021.9 in SSE 5.6 mph 5.6 mph 71 % 0.0 in 0.0 W/m2 CLR
23:15 10.8 °F 5.7 °F 1021.9 in Calm     71 % 0.0 in 0.0 W/m2 CLR
23:20 10.7 °F 5.9 °F 1021.9 in Calm     72 % 0.0 in 0.0 W/m2 CLR
23:25 10.6 °F 5.7 °F 1021.9 in Calm     72 % 0.0 in 0.0 W/m2 CLR
23:30 10.5 °F 5.7 °F 1022.2 in Calm     72 % 0.0 in 0.0 W/m2 CLR
23:35 10.4 °F 5.6 °F 1022.2 in Calm     72 % 0.0 in 0.0 W/m2 CLR
23:40 10.4 °F 5.8 °F 1022.2 in Calm     73 % 0.0 in 0.0 W/m2 CLR
23:45 10.3 °F 5.7 °F 1022.2 in Calm     73 % 0.0 in 0.0 W/m2 CLR
23:50 10.2 °F 5.6 °F 1022.2 in Calm     73 % 0.0 in 0.0 W/m2 CLR
23:55 10.2 °F 5.6 °F 1022.6 in Calm     73 % 0.0 in 0.0 W/m2 CLR
Lo Temps de Massalio
Compliments of Weather Underground - 1.25 mb